Significant Other — WDB7278 — position and weather

sailwx.info

Track history (hours):
 
Tides and Currents Weather Stations Pressure Air Temp Water Temp Dewpoint Dewpoint Depression Visibility Wind Speed Wind Dir Waves Ship Positions

Significant Other

Owner: Miller, Douglas P, Port Orchard, WA. More information available from US FCC via Universal Licensing System and Coast Guard Vessel Documentation Center.

Last reported at 2015-Aug-24 21:32 UTC. Time now 2015-Aug-30 01:36 UTC.
Position N 47°32' W 122°39'.

Length 13 m; draft 2 m.

Type: Sailing vessel. MMSI: 366896730.

Date/timePositionNaut miles runAvg speedWind from/ knotsBaromVisibWave heightAir tempDewpointWater temp
2015-Aug-24 21:32N 47°32' W 122°39'0 0.0
2015-Aug-24 20:33N 47°32' W 122°39'3 3.0
2015-Aug-24 19:33N 47°34' W 122°35'1 1.3
2015-Aug-24 18:33N 47°35' W 122°34'8 5.8
2015-Aug-24 17:10N 47°43' W 122°33'4 6.1
2015-Aug-24 16:33N 47°45' W 122°28'6 6.2
2015-Aug-24 15:33N 47°51' W 122°30'  
2015-Aug-22 00:03N 48°22' W 124°37'1 1.4
2015-Aug-21 23:33N 48°23' W 124°36'1 1.2
2015-Aug-21 22:33N 48°22' W 124°34'2 1.7
2015-Aug-21 21:33N 48°22' W 124°37'  
2015-Aug-18 23:28N 48°22' W 124°37'2 1.8
2015-Aug-18 22:34N 48°24' W 124°37'3 0.7
2015-Aug-18 18:25N 48°23' W 124°42'4 4.9
2015-Aug-18 17:34N 48°23' W 124°36'1 0.1
2015-Aug-18 00:34N 48°22' W 124°37'1 1.0
2015-Aug-17 23:33N 48°23' W 124°36'0 0.0
2015-Aug-17 22:25N 48°23' W 124°36'0 0.0
2015-Aug-17 21:33N 48°23' W 124°36'1 0.8
2015-Aug-17 20:33N 48°22' W 124°34'2 0.1
2015-Aug-16 22:32N 48°22' W 124°37'2 0.3
2015-Aug-16 16:33N 48°24' W 124°36'2 0.1
2015-Aug-15 22:16N 48°22' W 124°37'0 0.3
2015-Aug-15 21:32N 48°22' W 124°37'1 0.9
2015-Aug-15 20:33N 48°23' W 124°37'2 0.4
2015-Aug-15 16:25N 48°24' W 124°40'3 0.2
2015-Aug-15 01:12N 48°22' W 124°37'0 0.0
2015-Aug-15 00:33N 48°22' W 124°37'2 1.7
2015-Aug-14 23:33N 48°22' W 124°34'0 0.0
2015-Aug-14 22:33N 48°22' W 124°34'0 0.0
2015-Aug-14 21:33N 48°22' W 124°34'  
Track history (hours):
 
Tides and Currents Weather Stations Pressure Air Temp Water Temp Dewpoint Dewpoint Depression Visibility Wind Speed Wind Dir Waves Ship Positions

Significant Other

Owner: Miller, Douglas P, Port Orchard, WA. More information available from US FCC via Universal Licensing System and Coast Guard Vessel Documentation Center.

Last reported at 2015-Aug-24 21:32 UTC. Time now 2015-Aug-30 01:36 UTC.
Position N 47°32' W 122°39'.

Length 13 m; draft 2 m.

Type: Sailing vessel. MMSI: 366896730.

Date/timePositionNaut miles runAvg speedWind from/ knotsBaromVisibWave heightAir tempDewpointWater temp
2015-Aug-24 21:32N 47°32' W 122°39'0 0.0
2015-Aug-24 20:33N 47°32' W 122°39'3 3.0
2015-Aug-24 19:33N 47°34' W 122°35'1 1.3
2015-Aug-24 18:33N 47°35' W 122°34'8 5.8
2015-Aug-24 17:10N 47°43' W 122°33'4 6.1
2015-Aug-24 16:33N 47°45' W 122°28'6 6.2
2015-Aug-24 15:33N 47°51' W 122°30'  
2015-Aug-22 00:03N 48°22' W 124°37'1 1.4
2015-Aug-21 23:33N 48°23' W 124°36'1 1.2
2015-Aug-21 22:33N 48°22' W 124°34'2 1.7
2015-Aug-21 21:33N 48°22' W 124°37'  
2015-Aug-18 23:28N 48°22' W 124°37'2 1.8
2015-Aug-18 22:34N 48°24' W 124°37'3 0.7
2015-Aug-18 18:25N 48°23' W 124°42'4 4.9
2015-Aug-18 17:34N 48°23' W 124°36'1 0.1
2015-Aug-18 00:34N 48°22' W 124°37'1 1.0
2015-Aug-17 23:33N 48°23' W 124°36'0 0.0
2015-Aug-17 22:25N 48°23' W 124°36'0 0.0
2015-Aug-17 21:33N 48°23' W 124°36'1 0.8
2015-Aug-17 20:33N 48°22' W 124°34'2 0.1
2015-Aug-16 22:32N 48°22' W 124°37'2 0.3
2015-Aug-16 16:33N 48°24' W 124°36'2 0.1
2015-Aug-15 22:16N 48°22' W 124°37'0 0.3
2015-Aug-15 21:32N 48°22' W 124°37'1 0.9
2015-Aug-15 20:33N 48°23' W 124°37'2 0.4
2015-Aug-15 16:25N 48°24' W 124°40'3 0.2
2015-Aug-15 01:12N 48°22' W 124°37'0 0.0
2015-Aug-15 00:33N 48°22' W 124°37'2 1.7
2015-Aug-14 23:33N 48°22' W 124°34'0 0.0
2015-Aug-14 22:33N 48°22' W 124°34'0 0.0
2015-Aug-14 21:33N 48°22' W 124°34'  

Dump ship's entire track history